sensor_id;sensor_type;location;lat;lon;timestamp;P1;durP1;ratioP1;P2;durP2;ratioP2
47737;SDS011;33502;47.182;27.506;2023-03-02T00:01:40;46.58;;;22.17;;
47737;SDS011;33502;47.182;27.506;2023-03-02T00:04:13;53.83;;;25.40;;
47737;SDS011;33502;47.182;27.506;2023-03-02T00:06:54;54.45;;;24.88;;
47737;SDS011;33502;47.182;27.506;2023-03-02T00:09:22;48.75;;;22.20;;
47737;SDS011;33502;47.182;27.506;2023-03-02T00:11:49;48.30;;;22.52;;
47737;SDS011;33502;47.182;27.506;2023-03-02T00:14:15;45.70;;;22.48;;
47737;SDS011;33502;47.182;27.506;2023-03-02T00:16:41;45.03;;;22.05;;
47737;SDS011;33502;47.182;27.506;2023-03-02T00:19:07;50.83;;;23.55;;
47737;SDS011;33502;47.182;27.506;2023-03-02T00:21:33;45.45;;;22.08;;
47737;SDS011;33502;47.182;27.506;2023-03-02T00:23:59;45.08;;;20.67;;
47737;SDS011;33502;47.182;27.506;2023-03-02T00:26:25;49.20;;;23.05;;
47737;SDS011;33502;47.182;27.506;2023-03-02T00:28:50;44.95;;;22.00;;
47737;SDS011;33502;47.182;27.506;2023-03-02T00:31:17;50.45;;;21.52;;
47737;SDS011;33502;47.182;27.506;2023-03-02T00:33:43;46.63;;;21.77;;
47737;SDS011;33502;47.182;27.506;2023-03-02T00:36:15;50.60;;;21.73;;
47737;SDS011;33502;47.182;27.506;2023-03-02T00:38:42;46.40;;;23.83;;
47737;SDS011;33502;47.182;27.506;2023-03-02T00:41:09;46.08;;;21.15;;
47737;SDS011;33502;47.182;27.506;2023-03-02T00:43:36;49.70;;;21.77;;
47737;SDS011;33502;47.182;27.506;2023-03-02T00:46:09;44.30;;;21.75;;
47737;SDS011;33502;47.182;27.506;2023-03-02T00:48:37;49.40;;;23.92;;
47737;SDS011;33502;47.182;27.506;2023-03-02T00:51:03;45.25;;;21.25;;
47737;SDS011;33502;47.182;27.506;2023-03-02T00:53:29;43.22;;;20.10;;
47737;SDS011;33502;47.182;27.506;2023-03-02T00:55:56;43.33;;;21.27;;
47737;SDS011;33502;47.182;27.506;2023-03-02T00:58:24;43.13;;;20.67;;
47737;SDS011;33502;47.182;27.506;2023-03-02T01:00:51;39.20;;;20.58;;
47737;SDS011;33502;47.182;27.506;2023-03-02T01:03:17;43.72;;;21.08;;
47737;SDS011;33502;47.182;27.506;2023-03-02T01:05:43;43.67;;;20.80;;
47737;SDS011;33502;47.182;27.506;2023-03-02T01:08:09;46.03;;;22.23;;
47737;SDS011;33502;47.182;27.506;2023-03-02T01:10:35;47.85;;;19.80;;
47737;SDS011;33502;47.182;27.506;2023-03-02T01:13:02;46.00;;;21.15;;
47737;SDS011;33502;47.182;27.506;2023-03-02T01:15:28;43.70;;;21.45;;
47737;SDS011;33502;47.182;27.506;2023-03-02T01:17:54;46.95;;;20.98;;
47737;SDS011;33502;47.182;27.506;2023-03-02T01:20:20;44.70;;;20.95;;
47737;SDS011;33502;47.182;27.506;2023-03-02T01:22:46;43.47;;;20.90;;
47737;SDS011;33502;47.182;27.506;2023-03-02T01:25:12;43.60;;;21.05;;
47737;SDS011;33502;47.182;27.506;2023-03-02T01:27:38;48.97;;;22.20;;
47737;SDS011;33502;47.182;27.506;2023-03-02T01:30:03;45.60;;;20.98;;
47737;SDS011;33502;47.182;27.506;2023-03-02T01:32:30;47.78;;;22.27;;
47737;SDS011;33502;47.182;27.506;2023-03-02T01:34:56;49.28;;;22.75;;
47737;SDS011;33502;47.182;27.506;2023-03-02T01:37:22;48.15;;;22.63;;
47737;SDS011;33502;47.182;27.506;2023-03-02T01:39:48;52.97;;;24.02;;
47737;SDS011;33502;47.182;27.506;2023-03-02T01:42:15;50.05;;;23.08;;
47737;SDS011;33502;47.182;27.506;2023-03-02T01:44:45;49.70;;;22.55;;
47737;SDS011;33502;47.182;27.506;2023-03-02T01:47:24;44.53;;;20.63;;
47737;SDS011;33502;47.182;27.506;2023-03-02T01:50:22;45.60;;;21.38;;
47737;SDS011;33502;47.182;27.506;2023-03-02T01:52:57;49.10;;;20.77;;
47737;SDS011;33502;47.182;27.506;2023-03-02T01:55:24;54.35;;;22.63;;
47737;SDS011;33502;47.182;27.506;2023-03-02T01:57:53;44.63;;;23.45;;
47737;SDS011;33502;47.182;27.506;2023-03-02T02:00:23;44.03;;;21.40;;
47737;SDS011;33502;47.182;27.506;2023-03-02T02:02:52;44.90;;;21.30;;
47737;SDS011;33502;47.182;27.506;2023-03-02T02:05:22;46.92;;;21.83;;
47737;SDS011;33502;47.182;27.506;2023-03-02T02:07:51;50.97;;;22.73;;
47737;SDS011;33502;47.182;27.506;2023-03-02T02:10:17;41.72;;;21.00;;
47737;SDS011;33502;47.182;27.506;2023-03-02T02:12:44;47.58;;;21.88;;
47737;SDS011;33502;47.182;27.506;2023-03-02T02:15:10;45.33;;;20.17;;
47737;SDS011;33502;47.182;27.506;2023-03-02T02:17:37;41.35;;;21.73;;
47737;SDS011;33502;47.182;27.506;2023-03-02T02:20:05;44.15;;;21.17;;
47737;SDS011;33502;47.182;27.506;2023-03-02T02:28:11;49.10;;;23.92;;
47737;SDS011;33502;47.182;27.506;2023-03-02T02:30:43;50.63;;;23.17;;
47737;SDS011;33502;47.182;27.506;2023-03-02T02:33:17;49.70;;;22.33;;
47737;SDS011;33502;47.182;27.506;2023-03-02T02:35:47;46.95;;;20.92;;
47737;SDS011;33502;47.182;27.506;2023-03-02T02:38:17;51.30;;;21.63;;
47737;SDS011;33502;47.182;27.506;2023-03-02T02:43:24;49.35;;;21.70;;
47737;SDS011;33502;47.182;27.506;2023-03-02T02:45:53;48.63;;;22.52;;
47737;SDS011;33502;47.182;27.506;2023-03-02T02:48:22;47.85;;;22.30;;
47737;SDS011;33502;47.182;27.506;2023-03-02T02:50:52;51.05;;;22.02;;
47737;SDS011;33502;47.182;27.506;2023-03-02T02:56:36;52.15;;;22.13;;
47737;SDS011;33502;47.182;27.506;2023-03-02T03:01:37;45.17;;;20.95;;
47737;SDS011;33502;47.182;27.506;2023-03-02T03:04:04;46.90;;;20.67;;
47737;SDS011;33502;47.182;27.506;2023-03-02T03:06:32;47.28;;;21.55;;
47737;SDS011;33502;47.182;27.506;2023-03-02T03:09:08;47.45;;;22.17;;
47737;SDS011;33502;47.182;27.506;2023-03-02T03:11:40;43.55;;;22.13;;
47737;SDS011;33502;47.182;27.506;2023-03-02T03:14:13;44.40;;;22.13;;
47737;SDS011;33502;47.182;27.506;2023-03-02T03:16:46;50.97;;;25.10;;
47737;SDS011;33502;47.182;27.506;2023-03-02T03:21:49;41.58;;;20.25;;
47737;SDS011;33502;47.182;27.506;2023-03-02T03:24:17;45.47;;;21.63;;
47737;SDS011;33502;47.182;27.506;2023-03-02T03:26:45;48.50;;;23.08;;
47737;SDS011;33502;47.182;27.506;2023-03-02T03:29:13;44.85;;;20.45;;
47737;SDS011;33502;47.182;27.506;2023-03-02T03:31:39;41.92;;;20.67;;
47737;SDS011;33502;47.182;27.506;2023-03-02T03:34:05;49.53;;;22.88;;
47737;SDS011;33502;47.182;27.506;2023-03-02T03:36:34;42.63;;;20.58;;
47737;SDS011;33502;47.182;27.506;2023-03-02T03:39:02;45.30;;;22.02;;
47737;SDS011;33502;47.182;27.506;2023-03-02T03:41:30;47.28;;;22.20;;
47737;SDS011;33502;47.182;27.506;2023-03-02T03:43:57;46.53;;;20.95;;
47737;SDS011;33502;47.182;27.506;2023-03-02T03:46:24;43.85;;;20.58;;
47737;SDS011;33502;47.182;27.506;2023-03-02T03:48:50;43.75;;;22.38;;
47737;SDS011;33502;47.182;27.506;2023-03-02T03:51:16;48.83;;;23.05;;
47737;SDS011;33502;47.182;27.506;2023-03-02T03:53:44;38.85;;;19.60;;
47737;SDS011;33502;47.182;27.506;2023-03-02T03:56:10;51.38;;;23.10;;
47737;SDS011;33502;47.182;27.506;2023-03-02T03:58:36;41.00;;;18.38;;
47737;SDS011;33502;47.182;27.506;2023-03-02T04:01:03;35.28;;;15.90;;
47737;SDS011;33502;47.182;27.506;2023-03-02T04:03:29;44.67;;;20.70;;
47737;SDS011;33502;47.182;27.506;2023-03-02T04:05:55;45.22;;;20.88;;
47737;SDS011;33502;47.182;27.506;2023-03-02T04:08:22;46.15;;;20.75;;
47737;SDS011;33502;47.182;27.506;2023-03-02T04:10:48;47.53;;;21.48;;
47737;SDS011;33502;47.182;27.506;2023-03-02T04:13:14;41.70;;;20.15;;
47737;SDS011;33502;47.182;27.506;2023-03-02T04:15:40;41.30;;;20.55;;
47737;SDS011;33502;47.182;27.506;2023-03-02T04:18:07;53.83;;;21.05;;
47737;SDS011;33502;47.182;27.506;2023-03-02T04:20:34;48.65;;;21.13;;
47737;SDS011;33502;47.182;27.506;2023-03-02T04:23:00;44.25;;;21.52;;
47737;SDS011;33502;47.182;27.506;2023-03-02T04:25:27;42.05;;;18.02;;
47737;SDS011;33502;47.182;27.506;2023-03-02T04:28:02;41.67;;;19.95;;
47737;SDS011;33502;47.182;27.506;2023-03-02T04:30:33;47.67;;;21.10;;
47737;SDS011;33502;47.182;27.506;2023-03-02T04:32:59;51.50;;;21.42;;
47737;SDS011;33502;47.182;27.506;2023-03-02T04:35:26;47.63;;;21.38;;
47737;SDS011;33502;47.182;27.506;2023-03-02T04:37:52;44.28;;;19.95;;
47737;SDS011;33502;47.182;27.506;2023-03-02T04:40:18;39.67;;;19.42;;
47737;SDS011;33502;47.182;27.506;2023-03-02T04:42:44;36.88;;;18.10;;
47737;SDS011;33502;47.182;27.506;2023-03-02T04:45:10;42.58;;;19.33;;
47737;SDS011;33502;47.182;27.506;2023-03-02T04:47:37;37.20;;;18.52;;
47737;SDS011;33502;47.182;27.506;2023-03-02T04:50:03;41.35;;;18.95;;
47737;SDS011;33502;47.182;27.506;2023-03-02T04:52:29;39.72;;;17.30;;
47737;SDS011;33502;47.182;27.506;2023-03-02T04:54:54;35.92;;;18.08;;
47737;SDS011;33502;47.182;27.506;2023-03-02T04:57:20;40.53;;;17.52;;
47737;SDS011;33502;47.182;27.506;2023-03-02T04:59:46;36.08;;;18.27;;
47737;SDS011;33502;47.182;27.506;2023-03-02T05:02:12;47.90;;;18.63;;
47737;SDS011;33502;47.182;27.506;2023-03-02T05:04:37;36.90;;;18.15;;
47737;SDS011;33502;47.182;27.506;2023-03-02T05:07:04;42.13;;;21.08;;
47737;SDS011;33502;47.182;27.506;2023-03-02T05:09:30;39.67;;;18.92;;
47737;SDS011;33502;47.182;27.506;2023-03-02T05:11:56;41.28;;;19.95;;
47737;SDS011;33502;47.182;27.506;2023-03-02T05:14:23;40.30;;;19.67;;
47737;SDS011;33502;47.182;27.506;2023-03-02T05:16:50;39.95;;;20.05;;
47737;SDS011;33502;47.182;27.506;2023-03-02T05:19:17;40.90;;;20.60;;
47737;SDS011;33502;47.182;27.506;2023-03-02T05:21:43;34.97;;;18.42;;
47737;SDS011;33502;47.182;27.506;2023-03-02T05:24:09;38.95;;;18.88;;
47737;SDS011;33502;47.182;27.506;2023-03-02T05:26:36;40.65;;;19.52;;
47737;SDS011;33502;47.182;27.506;2023-03-02T05:29:02;43.83;;;20.95;;
47737;SDS011;33502;47.182;27.506;2023-03-02T05:31:29;35.92;;;18.45;;
47737;SDS011;33502;47.182;27.506;2023-03-02T05:33:59;40.90;;;18.33;;
47737;SDS011;33502;47.182;27.506;2023-03-02T05:36:25;44.03;;;17.20;;
47737;SDS011;33502;47.182;27.506;2023-03-02T05:38:51;41.67;;;19.83;;
47737;SDS011;33502;47.182;27.506;2023-03-02T05:41:17;40.65;;;18.30;;
47737;SDS011;33502;47.182;27.506;2023-03-02T05:43:43;39.45;;;17.20;;
47737;SDS011;33502;47.182;27.506;2023-03-02T05:46:09;40.28;;;17.20;;
47737;SDS011;33502;47.182;27.506;2023-03-02T05:48:34;34.25;;;18.50;;
47737;SDS011;33502;47.182;27.506;2023-03-02T05:51:00;41.38;;;20.02;;
47737;SDS011;33502;47.182;27.506;2023-03-02T05:53:26;48.60;;;20.52;;
47737;SDS011;33502;47.182;27.506;2023-03-02T05:55:52;40.10;;;19.45;;
47737;SDS011;33502;47.182;27.506;2023-03-02T05:58:18;41.22;;;19.58;;
47737;SDS011;33502;47.182;27.506;2023-03-02T06:00:45;43.63;;;20.60;;
47737;SDS011;33502;47.182;27.506;2023-03-02T06:03:12;35.35;;;17.58;;
47737;SDS011;33502;47.182;27.506;2023-03-02T06:05:39;40.30;;;21.90;;
47737;SDS011;33502;47.182;27.506;2023-03-02T06:08:05;33.83;;;18.98;;
47737;SDS011;33502;47.182;27.506;2023-03-02T06:10:31;35.25;;;16.73;;
47737;SDS011;33502;47.182;27.506;2023-03-02T06:12:57;33.63;;;17.30;;
47737;SDS011;33502;47.182;27.506;2023-03-02T06:15:23;50.95;;;23.83;;
47737;SDS011;33502;47.182;27.506;2023-03-02T06:17:49;34.28;;;18.48;;
47737;SDS011;33502;47.182;27.506;2023-03-02T06:20:15;53.80;;;21.80;;
47737;SDS011;33502;47.182;27.506;2023-03-02T06:22:43;57.25;;;24.25;;
47737;SDS011;33502;47.182;27.506;2023-03-02T06:25:11;40.25;;;20.13;;
47737;SDS011;33502;47.182;27.506;2023-03-02T06:27:38;43.53;;;22.27;;
47737;SDS011;33502;47.182;27.506;2023-03-02T06:30:05;41.83;;;21.98;;
47737;SDS011;33502;47.182;27.506;2023-03-02T06:32:32;35.28;;;17.23;;
47737;SDS011;33502;47.182;27.506;2023-03-02T06:34:59;39.90;;;19.95;;
47737;SDS011;33502;47.182;27.506;2023-03-02T06:37:29;44.38;;;19.63;;
47737;SDS011;33502;47.182;27.506;2023-03-02T06:39:56;46.55;;;23.48;;
47737;SDS011;33502;47.182;27.506;2023-03-02T06:42:22;44.85;;;24.13;;
47737;SDS011;33502;47.182;27.506;2023-03-02T06:44:49;45.80;;;19.88;;
47737;SDS011;33502;47.182;27.506;2023-03-02T06:47:19;43.80;;;23.20;;
47737;SDS011;33502;47.182;27.506;2023-03-02T06:49:48;47.30;;;23.63;;
47737;SDS011;33502;47.182;27.506;2023-03-02T06:52:14;52.38;;;26.80;;
47737;SDS011;33502;47.182;27.506;2023-03-02T06:54:40;54.42;;;28.55;;
47737;SDS011;33502;47.182;27.506;2023-03-02T06:57:06;45.88;;;26.83;;
47737;SDS011;33502;47.182;27.506;2023-03-02T06:59:32;44.78;;;21.80;;
47737;SDS011;33502;47.182;27.506;2023-03-02T07:01:58;46.28;;;23.63;;
47737;SDS011;33502;47.182;27.506;2023-03-02T07:04:24;45.25;;;21.52;;
47737;SDS011;33502;47.182;27.506;2023-03-02T07:06:50;37.25;;;20.15;;
47737;SDS011;33502;47.182;27.506;2023-03-02T07:09:15;43.95;;;20.63;;
47737;SDS011;33502;47.182;27.506;2023-03-02T07:11:41;38.08;;;19.38;;
47737;SDS011;33502;47.182;27.506;2023-03-02T07:14:07;35.47;;;19.23;;
47737;SDS011;33502;47.182;27.506;2023-03-02T07:16:33;38.95;;;18.75;;
47737;SDS011;33502;47.182;27.506;2023-03-02T07:18:59;33.92;;;17.90;;
47737;SDS011;33502;47.182;27.506;2023-03-02T07:21:25;33.90;;;16.60;;
47737;SDS011;33502;47.182;27.506;2023-03-02T07:23:51;29.63;;;15.70;;
47737;SDS011;33502;47.182;27.506;2023-03-02T07:26:17;32.78;;;16.45;;
47737;SDS011;33502;47.182;27.506;2023-03-02T07:28:43;37.05;;;17.63;;
47737;SDS011;33502;47.182;27.506;2023-03-02T07:31:09;31.65;;;17.00;;
47737;SDS011;33502;47.182;27.506;2023-03-02T07:33:36;35.33;;;16.00;;
47737;SDS011;33502;47.182;27.506;2023-03-02T07:36:03;34.88;;;19.40;;
47737;SDS011;33502;47.182;27.506;2023-03-02T07:38:29;31.75;;;16.48;;
47737;SDS011;33502;47.182;27.506;2023-03-02T07:40:55;31.35;;;17.70;;
47737;SDS011;33502;47.182;27.506;2023-03-02T07:43:21;36.60;;;16.83;;
47737;SDS011;33502;47.182;27.506;2023-03-02T07:45:49;32.70;;;16.30;;
47737;SDS011;33502;47.182;27.506;2023-03-02T07:48:16;30.63;;;16.40;;
47737;SDS011;33502;47.182;27.506;2023-03-02T07:50:42;36.35;;;19.08;;
47737;SDS011;33502;47.182;27.506;2023-03-02T07:53:08;43.10;;;21.92;;
47737;SDS011;33502;47.182;27.506;2023-03-02T07:55:34;32.97;;;17.20;;
47737;SDS011;33502;47.182;27.506;2023-03-02T07:57:59;39.75;;;18.40;;
47737;SDS011;33502;47.182;27.506;2023-03-02T08:00:25;29.25;;;16.70;;
47737;SDS011;33502;47.182;27.506;2023-03-02T08:02:51;34.08;;;16.30;;
47737;SDS011;33502;47.182;27.506;2023-03-02T08:05:17;31.85;;;16.33;;
47737;SDS011;33502;47.182;27.506;2023-03-02T08:07:44;22.80;;;13.85;;
47737;SDS011;33502;47.182;27.506;2023-03-02T08:10:11;24.95;;;12.57;;
47737;SDS011;33502;47.182;27.506;2023-03-02T08:12:37;20.50;;;9.88;;
47737;SDS011;33502;47.182;27.506;2023-03-02T08:15:02;26.58;;;12.32;;
47737;SDS011;33502;47.182;27.506;2023-03-02T08:17:29;19.05;;;10.82;;
47737;SDS011;33502;47.182;27.506;2023-03-02T08:19:54;19.88;;;11.65;;
47737;SDS011;33502;47.182;27.506;2023-03-02T08:22:20;27.75;;;13.20;;
47737;SDS011;33502;47.182;27.506;2023-03-02T08:24:46;24.20;;;12.95;;
47737;SDS011;33502;47.182;27.506;2023-03-02T08:27:12;20.60;;;10.20;;
47737;SDS011;33502;47.182;27.506;2023-03-02T08:29:39;19.63;;;9.35;;
47737;SDS011;33502;47.182;27.506;2023-03-02T08:32:05;23.83;;;11.45;;
47737;SDS011;33502;47.182;27.506;2023-03-02T08:34:31;23.25;;;11.48;;
47737;SDS011;33502;47.182;27.506;2023-03-02T08:36:57;20.48;;;11.48;;
47737;SDS011;33502;47.182;27.506;2023-03-02T08:39:23;15.23;;;8.75;;
47737;SDS011;33502;47.182;27.506;2023-03-02T08:41:52;15.70;;;8.68;;
47737;SDS011;33502;47.182;27.506;2023-03-02T08:44:18;15.10;;;7.47;;
47737;SDS011;33502;47.182;27.506;2023-03-02T08:46:46;16.90;;;8.68;;
47737;SDS011;33502;47.182;27.506;2023-03-02T08:49:14;25.13;;;10.20;;
47737;SDS011;33502;47.182;27.506;2023-03-02T08:51:40;16.40;;;7.93;;
47737;SDS011;33502;47.182;27.506;2023-03-02T08:54:06;14.63;;;7.85;;
47737;SDS011;33502;47.182;27.506;2023-03-02T08:56:33;15.77;;;8.35;;
47737;SDS011;33502;47.182;27.506;2023-03-02T08:59:04;14.35;;;6.82;;
47737;SDS011;33502;47.182;27.506;2023-03-02T09:01:33;12.45;;;7.18;;
47737;SDS011;33502;47.182;27.506;2023-03-02T09:04:01;15.60;;;8.10;;
47737;SDS011;33502;47.182;27.506;2023-03-02T09:06:29;14.60;;;6.32;;
47737;SDS011;33502;47.182;27.506;2023-03-02T09:08:57;13.20;;;7.38;;
47737;SDS011;33502;47.182;27.506;2023-03-02T09:11:23;14.80;;;8.73;;
47737;SDS011;33502;47.182;27.506;2023-03-02T09:13:49;13.27;;;6.82;;
47737;SDS011;33502;47.182;27.506;2023-03-02T09:16:15;19.40;;;8.60;;
47737;SDS011;33502;47.182;27.506;2023-03-02T09:18:41;17.02;;;8.52;;
47737;SDS011;33502;47.182;27.506;2023-03-02T09:21:07;28.05;;;12.65;;
47737;SDS011;33502;47.182;27.506;2023-03-02T09:23:34;17.25;;;9.02;;
47737;SDS011;33502;47.182;27.506;2023-03-02T09:26:01;15.57;;;8.07;;
47737;SDS011;33502;47.182;27.506;2023-03-02T09:28:28;15.77;;;7.90;;
47737;SDS011;33502;47.182;27.506;2023-03-02T09:30:56;15.13;;;8.27;;
47737;SDS011;33502;47.182;27.506;2023-03-02T09:46:14;14.27;;;7.20;;
47737;SDS011;33502;47.182;27.506;2023-03-02T09:48:59;14.68;;;7.15;;
47737;SDS011;33502;47.182;27.506;2023-03-02T09:54:45;19.80;;;7.05;;
47737;SDS011;33502;47.182;27.506;2023-03-02T09:57:21;14.20;;;7.15;;
47737;SDS011;33502;47.182;27.506;2023-03-02T10:00:00;13.40;;;7.30;;
47737;SDS011;33502;47.182;27.506;2023-03-02T10:02:45;14.70;;;7.22;;
47737;SDS011;33502;47.182;27.506;2023-03-02T10:05:19;9.82;;;5.80;;
47737;SDS011;33502;47.182;27.506;2023-03-02T10:07:48;11.57;;;6.75;;
47737;SDS011;33502;47.182;27.506;2023-03-02T10:21:10;10.20;;;6.03;;
47737;SDS011;33502;47.182;27.506;2023-03-02T10:26:44;15.60;;;7.93;;
47737;SDS011;33502;47.182;27.506;2023-03-02T10:31:41;11.20;;;4.80;;
47737;SDS011;33502;47.182;27.506;2023-03-02T10:34:09;9.80;;;5.00;;
47737;SDS011;33502;47.182;27.506;2023-03-02T10:36:42;9.35;;;5.65;;
47737;SDS011;33502;47.182;27.506;2023-03-02T10:39:15;11.60;;;6.15;;
47737;SDS011;33502;47.182;27.506;2023-03-02T10:41:43;10.73;;;5.82;;
47737;SDS011;33502;47.182;27.506;2023-03-02T10:44:14;10.85;;;5.22;;
47737;SDS011;33502;47.182;27.506;2023-03-02T10:46:44;9.52;;;5.05;;
47737;SDS011;33502;47.182;27.506;2023-03-02T10:49:24;14.40;;;4.80;;
47737;SDS011;33502;47.182;27.506;2023-03-02T10:51:56;9.05;;;4.25;;
47737;SDS011;33502;47.182;27.506;2023-03-02T10:54:37;11.30;;;5.18;;
47737;SDS011;33502;47.182;27.506;2023-03-02T10:57:04;8.48;;;4.75;;
47737;SDS011;33502;47.182;27.506;2023-03-02T10:59:50;11.15;;;5.10;;
47737;SDS011;33502;47.182;27.506;2023-03-02T11:02:26;10.18;;;4.90;;
47737;SDS011;33502;47.182;27.506;2023-03-02T11:04:54;10.80;;;5.28;;
47737;SDS011;33502;47.182;27.506;2023-03-02T11:07:23;9.30;;;5.60;;
47737;SDS011;33502;47.182;27.506;2023-03-02T11:09:59;8.85;;;3.40;;
47737;SDS011;33502;47.182;27.506;2023-03-02T11:12:51;5.72;;;3.13;;
47737;SDS011;33502;47.182;27.506;2023-03-02T11:18:07;9.27;;;4.60;;
47737;SDS011;33502;47.182;27.506;2023-03-02T11:20:46;11.60;;;4.50;;
47737;SDS011;33502;47.182;27.506;2023-03-02T11:26:25;8.05;;;3.78;;
47737;SDS011;33502;47.182;27.506;2023-03-02T11:29:02;7.03;;;3.53;;
47737;SDS011;33502;47.182;27.506;2023-03-02T11:34:05;9.73;;;4.13;;
47737;SDS011;33502;47.182;27.506;2023-03-02T11:36:57;9.88;;;3.95;;
47737;SDS011;33502;47.182;27.506;2023-03-02T11:39:24;31.10;;;9.63;;
47737;SDS011;33502;47.182;27.506;2023-03-02T11:42:08;10.63;;;4.90;;
47737;SDS011;33502;47.182;27.506;2023-03-02T11:44:44;6.82;;;4.68;;
47737;SDS011;33502;47.182;27.506;2023-03-02T11:47:11;8.60;;;4.22;;
47737;SDS011;33502;47.182;27.506;2023-03-02T11:49:56;9.68;;;3.72;;
47737;SDS011;33502;47.182;27.506;2023-03-02T11:52:26;8.48;;;3.55;;
47737;SDS011;33502;47.182;27.506;2023-03-02T11:55:02;8.63;;;3.60;;
47737;SDS011;33502;47.182;27.506;2023-03-02T11:59:54;6.30;;;3.80;;
47737;SDS011;33502;47.182;27.506;2023-03-02T12:02:22;7.85;;;3.55;;
47737;SDS011;33502;47.182;27.506;2023-03-02T12:04:59;6.32;;;3.90;;
47737;SDS011;33502;47.182;27.506;2023-03-02T12:07:27;4.93;;;2.80;;
47737;SDS011;33502;47.182;27.506;2023-03-02T12:12:35;9.07;;;3.20;;
47737;SDS011;33502;47.182;27.506;2023-03-02T12:18:01;6.55;;;3.35;;
47737;SDS011;33502;47.182;27.506;2023-03-02T12:20:38;4.57;;;2.97;;
47737;SDS011;33502;47.182;27.506;2023-03-02T12:23:08;7.30;;;3.47;;
47737;SDS011;33502;47.182;27.506;2023-03-02T12:25:46;7.60;;;3.45;;
47737;SDS011;33502;47.182;27.506;2023-03-02T12:28:38;5.60;;;3.60;;
47737;SDS011;33502;47.182;27.506;2023-03-02T12:31:08;4.10;;;2.63;;
47737;SDS011;33502;47.182;27.506;2023-03-02T12:33:46;8.98;;;3.80;;
47737;SDS011;33502;47.182;27.506;2023-03-02T12:36:15;8.23;;;3.58;;
47737;SDS011;33502;47.182;27.506;2023-03-02T12:39:37;13.75;;;3.80;;
47737;SDS011;33502;47.182;27.506;2023-03-02T12:41:46;8.80;;;3.78;;
47737;SDS011;33502;47.182;27.506;2023-03-02T12:47:18;8.98;;;3.75;;
47737;SDS011;33502;47.182;27.506;2023-03-02T12:49:59;9.88;;;4.00;;
47737;SDS011;33502;47.182;27.506;2023-03-02T12:52:40;10.82;;;4.38;;
47737;SDS011;33502;47.182;27.506;2023-03-02T12:55:14;9.35;;;4.88;;
47737;SDS011;33502;47.182;27.506;2023-03-02T12:57:49;10.18;;;4.78;;
47737;SDS011;33502;47.182;27.506;2023-03-02T13:00:18;12.05;;;5.68;;
47737;SDS011;33502;47.182;27.506;2023-03-02T13:02:47;5.75;;;3.90;;
47737;SDS011;33502;47.182;27.506;2023-03-02T13:05:19;11.55;;;4.25;;
47737;SDS011;33502;47.182;27.506;2023-03-02T13:07:57;8.63;;;4.78;;
47737;SDS011;33502;47.182;27.506;2023-03-02T13:13:03;8.38;;;4.55;;
47737;SDS011;33502;47.182;27.506;2023-03-02T13:18:22;8.10;;;4.53;;
47737;SDS011;33502;47.182;27.506;2023-03-02T13:20:49;6.82;;;3.38;;
47737;SDS011;33502;47.182;27.506;2023-03-02T13:23:17;9.00;;;4.22;;
47737;SDS011;33502;47.182;27.506;2023-03-02T13:25:51;6.00;;;3.92;;
47737;SDS011;33502;47.182;27.506;2023-03-02T13:28:29;7.60;;;3.20;;
47737;SDS011;33502;47.182;27.506;2023-03-02T13:30:58;5.30;;;2.97;;
47737;SDS011;33502;47.182;27.506;2023-03-02T13:33:46;8.68;;;4.75;;
47737;SDS011;33502;47.182;27.506;2023-03-02T13:39:19;8.70;;;3.70;;
47737;SDS011;33502;47.182;27.506;2023-03-02T13:41:51;6.40;;;3.10;;
47737;SDS011;33502;47.182;27.506;2023-03-02T13:44:19;5.47;;;2.83;;
47737;SDS011;33502;47.182;27.506;2023-03-02T13:46:50;10.68;;;5.03;;
47737;SDS011;33502;47.182;27.506;2023-03-02T13:49:32;8.82;;;4.13;;
47737;SDS011;33502;47.182;27.506;2023-03-02T13:52:03;6.75;;;4.25;;
47737;SDS011;33502;47.182;27.506;2023-03-02T13:54:33;8.55;;;4.38;;
47737;SDS011;33502;47.182;27.506;2023-03-02T13:57:00;6.50;;;4.20;;
47737;SDS011;33502;47.182;27.506;2023-03-02T13:59:28;8.52;;;5.15;;
47737;SDS011;33502;47.182;27.506;2023-03-02T14:01:56;5.75;;;3.33;;
47737;SDS011;33502;47.182;27.506;2023-03-02T14:04:22;9.60;;;4.07;;
47737;SDS011;33502;47.182;27.506;2023-03-02T14:06:49;5.85;;;3.25;;
47737;SDS011;33502;47.182;27.506;2023-03-02T14:09:16;7.93;;;3.00;;
47737;SDS011;33502;47.182;27.506;2023-03-02T14:11:45;5.05;;;3.42;;
47737;SDS011;33502;47.182;27.506;2023-03-02T14:14:15;6.20;;;3.60;;
47737;SDS011;33502;47.182;27.506;2023-03-02T14:16:47;8.68;;;4.50;;
47737;SDS011;33502;47.182;27.506;2023-03-02T14:19:13;7.10;;;4.03;;
47737;SDS011;33502;47.182;27.506;2023-03-02T14:21:43;8.98;;;3.83;;
47737;SDS011;33502;47.182;27.506;2023-03-02T14:24:10;6.25;;;3.35;;
47737;SDS011;33502;47.182;27.506;2023-03-02T14:26:37;5.90;;;3.72;;
47737;SDS011;33502;47.182;27.506;2023-03-02T14:32:02;12.05;;;3.63;;
47737;SDS011;33502;47.182;27.506;2023-03-02T14:34:31;8.23;;;2.83;;
47737;SDS011;33502;47.182;27.506;2023-03-02T14:36:58;6.22;;;3.80;;
47737;SDS011;33502;47.182;27.506;2023-03-02T14:42:10;12.20;;;3.75;;
47737;SDS011;33502;47.182;27.506;2023-03-02T14:44:38;5.68;;;2.90;;
47737;SDS011;33502;47.182;27.506;2023-03-02T14:47:05;10.55;;;4.30;;
47737;SDS011;33502;47.182;27.506;2023-03-02T14:49:31;6.28;;;3.20;;
47737;SDS011;33502;47.182;27.506;2023-03-02T14:51:59;7.93;;;3.58;;
47737;SDS011;33502;47.182;27.506;2023-03-02T14:54:26;6.10;;;3.13;;
47737;SDS011;33502;47.182;27.506;2023-03-02T14:56:59;7.85;;;4.05;;
47737;SDS011;33502;47.182;27.506;2023-03-02T14:59:26;7.15;;;3.50;;
47737;SDS011;33502;47.182;27.506;2023-03-02T15:01:51;8.70;;;4.47;;
47737;SDS011;33502;47.182;27.506;2023-03-02T15:04:17;11.60;;;4.00;;
47737;SDS011;33502;47.182;27.506;2023-03-02T15:06:43;8.57;;;3.67;;
47737;SDS011;33502;47.182;27.506;2023-03-02T15:09:10;5.80;;;4.10;;
47737;SDS011;33502;47.182;27.506;2023-03-02T15:11:36;7.53;;;4.25;;
47737;SDS011;33502;47.182;27.506;2023-03-02T15:14:02;7.70;;;3.85;;
47737;SDS011;33502;47.182;27.506;2023-03-02T15:16:28;7.20;;;3.88;;
47737;SDS011;33502;47.182;27.506;2023-03-02T15:18:53;8.90;;;3.67;;
47737;SDS011;33502;47.182;27.506;2023-03-02T15:21:20;6.88;;;3.25;;
47737;SDS011;33502;47.182;27.506;2023-03-02T15:23:48;8.80;;;4.57;;
47737;SDS011;33502;47.182;27.506;2023-03-02T15:26:15;8.10;;;4.22;;
47737;SDS011;33502;47.182;27.506;2023-03-02T15:28:41;8.13;;;4.20;;
47737;SDS011;33502;47.182;27.506;2023-03-02T15:31:10;7.72;;;4.38;;
47737;SDS011;33502;47.182;27.506;2023-03-02T15:33:41;8.35;;;3.95;;
47737;SDS011;33502;47.182;27.506;2023-03-02T15:36:10;16.20;;;4.97;;
47737;SDS011;33502;47.182;27.506;2023-03-02T15:38:37;6.93;;;4.00;;
47737;SDS011;33502;47.182;27.506;2023-03-02T15:41:04;13.18;;;5.28;;
47737;SDS011;33502;47.182;27.506;2023-03-02T15:43:30;8.65;;;3.85;;
47737;SDS011;33502;47.182;27.506;2023-03-02T15:45:56;15.27;;;4.75;;
47737;SDS011;33502;47.182;27.506;2023-03-02T15:48:22;10.40;;;3.88;;
47737;SDS011;33502;47.182;27.506;2023-03-02T15:51:21;9.25;;;4.25;;